sensor_id;sensor_type;location;lat;lon;timestamp;temperature;humidity
9925;DHT22;5001;51.674;7.868;2023-03-01T00:01:26;-2.20;1.00
9925;DHT22;5001;51.674;7.868;2023-03-01T00:03:54;-2.20;1.00
9925;DHT22;5001;51.674;7.868;2023-03-01T00:06:22;-2.30;1.00
9925;DHT22;5001;51.674;7.868;2023-03-01T00:08:49;-2.30;1.00
9925;DHT22;5001;51.674;7.868;2023-03-01T00:11:27;-2.30;1.00
9925;DHT22;5001;51.674;7.868;2023-03-01T00:13:57;-2.40;1.00
9925;DHT22;5001;51.674;7.868;2023-03-01T00:16:28;-2.40;1.00
9925;DHT22;5001;51.674;7.868;2023-03-01T00:18:56;-2.30;1.00
9925;DHT22;5001;51.674;7.868;2023-03-01T00:21:24;-2.30;1.00
9925;DHT22;5001;51.674;7.868;2023-03-01T00:23:52;-2.40;1.00
9925;DHT22;5001;51.674;7.868;2023-03-01T00:26:20;-2.50;1.00
9925;DHT22;5001;51.674;7.868;2023-03-01T00:28:48;-2.50;1.00
9925;DHT22;5001;51.674;7.868;2023-03-01T00:31:18;-2.50;1.00
9925;DHT22;5001;51.674;7.868;2023-03-01T00:33:45;-2.60;1.00
9925;DHT22;5001;51.674;7.868;2023-03-01T00:36:14;-2.60;1.00
9925;DHT22;5001;51.674;7.868;2023-03-01T00:38:44;-2.70;1.00
9925;DHT22;5001;51.674;7.868;2023-03-01T00:41:13;-2.80;1.00
9925;DHT22;5001;51.674;7.868;2023-03-01T00:43:41;-2.70;1.00
9925;DHT22;5001;51.674;7.868;2023-03-01T00:46:13;-2.70;1.00
9925;DHT22;5001;51.674;7.868;2023-03-01T00:48:41;-2.60;1.00
9925;DHT22;5001;51.674;7.868;2023-03-01T00:51:23;-2.60;1.00
9925;DHT22;5001;51.674;7.868;2023-03-01T00:53:52;-2.60;1.00
9925;DHT22;5001;51.674;7.868;2023-03-01T00:56:20;-2.80;1.00
9925;DHT22;5001;51.674;7.868;2023-03-01T00:58:47;-2.80;1.00
9925;DHT22;5001;51.674;7.868;2023-03-01T01:01:21;-2.70;1.00
9925;DHT22;5001;51.674;7.868;2023-03-01T01:04:07;-2.70;1.00
9925;DHT22;5001;51.674;7.868;2023-03-01T01:06:37;-2.80;1.00
9925;DHT22;5001;51.674;7.868;2023-03-01T01:09:06;-2.80;1.00
9925;DHT22;5001;51.674;7.868;2023-03-01T01:11:34;-2.80;1.00
9925;DHT22;5001;51.674;7.868;2023-03-01T01:14:04;-2.80;1.00
9925;DHT22;5001;51.674;7.868;2023-03-01T01:16:31;-2.90;1.00
9925;DHT22;5001;51.674;7.868;2023-03-01T01:19:00;-2.90;1.00
9925;DHT22;5001;51.674;7.868;2023-03-01T01:21:27;-3.00;1.00
9925;DHT22;5001;51.674;7.868;2023-03-01T01:23:55;-3.10;1.00
9925;DHT22;5001;51.674;7.868;2023-03-01T01:26:28;-3.00;1.00
9925;DHT22;5001;51.674;7.868;2023-03-01T01:28:56;-3.00;1.00
9925;DHT22;5001;51.674;7.868;2023-03-01T01:31:24;-3.10;1.00
9925;DHT22;5001;51.674;7.868;2023-03-01T01:33:52;-3.20;1.00
9925;DHT22;5001;51.674;7.868;2023-03-01T01:36:20;-3.30;1.00
9925;DHT22;5001;51.674;7.868;2023-03-01T01:38:47;-3.10;1.00
9925;DHT22;5001;51.674;7.868;2023-03-01T01:41:15;-3.00;1.00
9925;DHT22;5001;51.674;7.868;2023-03-01T01:44:20;-3.00;1.00
9925;DHT22;5001;51.674;7.868;2023-03-01T01:49:38;-3.10;1.00
9925;DHT22;5001;51.674;7.868;2023-03-01T01:54:38;-3.20;1.00
9925;DHT22;5001;51.674;7.868;2023-03-01T01:57:12;-3.30;1.00
9925;DHT22;5001;51.674;7.868;2023-03-01T01:59:41;-3.30;1.00
9925;DHT22;5001;51.674;7.868;2023-03-01T02:02:10;-3.40;1.00
9925;DHT22;5001;51.674;7.868;2023-03-01T02:04:38;-3.50;1.00
9925;DHT22;5001;51.674;7.868;2023-03-01T02:07:17;-3.50;1.00
9925;DHT22;5001;51.674;7.868;2023-03-01T02:09:50;-3.50;1.00
9925;DHT22;5001;51.674;7.868;2023-03-01T02:12:22;-3.60;1.00
9925;DHT22;5001;51.674;7.868;2023-03-01T02:14:51;-3.60;1.00
9925;DHT22;5001;51.674;7.868;2023-03-01T02:17:18;-3.70;1.00
9925;DHT22;5001;51.674;7.868;2023-03-01T02:22:24;-3.70;1.00
9925;DHT22;5001;51.674;7.868;2023-03-01T02:27:21;-3.60;1.00
9925;DHT22;5001;51.674;7.868;2023-03-01T02:29:51;-3.50;1.00
9925;DHT22;5001;51.674;7.868;2023-03-01T02:32:19;-3.50;1.00
9925;DHT22;5001;51.674;7.868;2023-03-01T02:34:56;-3.60;1.00
9925;DHT22;5001;51.674;7.868;2023-03-01T02:37:24;-3.70;1.00
9925;DHT22;5001;51.674;7.868;2023-03-01T02:39:59;-3.70;1.00
9925;DHT22;5001;51.674;7.868;2023-03-01T02:42:36;-3.80;1.00
9925;DHT22;5001;51.674;7.868;2023-03-01T02:45:06;-3.60;1.00
9925;DHT22;5001;51.674;7.868;2023-03-01T02:47:33;-3.70;1.00
9925;DHT22;5001;51.674;7.868;2023-03-01T02:50:00;-3.80;1.00
9925;DHT22;5001;51.674;7.868;2023-03-01T02:52:48;-3.80;1.00
9925;DHT22;5001;51.674;7.868;2023-03-01T02:55:19;-3.80;1.00
9925;DHT22;5001;51.674;7.868;2023-03-01T02:57:48;-3.80;1.00
9925;DHT22;5001;51.674;7.868;2023-03-01T03:00:23;-3.80;1.00
9925;DHT22;5001;51.674;7.868;2023-03-01T03:02:53;-3.80;1.00
9925;DHT22;5001;51.674;7.868;2023-03-01T03:05:27;-3.80;1.00
9925;DHT22;5001;51.674;7.868;2023-03-01T03:07:57;-3.80;1.00
9925;DHT22;5001;51.674;7.868;2023-03-01T03:10:28;-3.90;1.00
9925;DHT22;5001;51.674;7.868;2023-03-01T03:13:01;-4.00;1.00
9925;DHT22;5001;51.674;7.868;2023-03-01T03:15:30;-4.00;1.00
9925;DHT22;5001;51.674;7.868;2023-03-01T03:17:58;-3.90;1.00
9925;DHT22;5001;51.674;7.868;2023-03-01T03:20:27;-4.00;1.00
9925;DHT22;5001;51.674;7.868;2023-03-01T03:22:56;-4.00;1.00
9925;DHT22;5001;51.674;7.868;2023-03-01T03:25:24;-4.10;1.00
9925;DHT22;5001;51.674;7.868;2023-03-01T03:27:53;-4.00;1.00
9925;DHT22;5001;51.674;7.868;2023-03-01T03:30:28;-4.00;1.00
9925;DHT22;5001;51.674;7.868;2023-03-01T03:32:57;-4.10;1.00
9925;DHT22;5001;51.674;7.868;2023-03-01T03:35:27;-4.10;1.00
9925;DHT22;5001;51.674;7.868;2023-03-01T03:37:58;-4.20;1.00
9925;DHT22;5001;51.674;7.868;2023-03-01T03:40:39;-4.20;1.00
9925;DHT22;5001;51.674;7.868;2023-03-01T03:43:15;-4.20;1.00
9925;DHT22;5001;51.674;7.868;2023-03-01T03:45:44;-4.30;1.00
9925;DHT22;5001;51.674;7.868;2023-03-01T03:48:12;-4.30;1.00
9925;DHT22;5001;51.674;7.868;2023-03-01T03:50:39;-4.30;1.00
9925;DHT22;5001;51.674;7.868;2023-03-01T03:53:09;-4.40;1.00
9925;DHT22;5001;51.674;7.868;2023-03-01T03:55:37;-4.40;1.00
9925;DHT22;5001;51.674;7.868;2023-03-01T03:58:08;-4.50;1.00
9925;DHT22;5001;51.674;7.868;2023-03-01T04:00:40;-4.50;1.00
9925;DHT22;5001;51.674;7.868;2023-03-01T04:03:09;-4.50;1.00
9925;DHT22;5001;51.674;7.868;2023-03-01T04:05:37;-4.50;1.00
9925;DHT22;5001;51.674;7.868;2023-03-01T04:08:05;-4.50;1.00
9925;DHT22;5001;51.674;7.868;2023-03-01T04:10:37;-4.50;1.00
9925;DHT22;5001;51.674;7.868;2023-03-01T04:13:06;-4.50;1.00
9925;DHT22;5001;51.674;7.868;2023-03-01T04:15:34;-4.50;1.00
9925;DHT22;5001;51.674;7.868;2023-03-01T04:18:01;-4.50;1.00
9925;DHT22;5001;51.674;7.868;2023-03-01T04:20:31;-4.40;1.00
9925;DHT22;5001;51.674;7.868;2023-03-01T04:23:14;-4.40;1.00
9925;DHT22;5001;51.674;7.868;2023-03-01T04:25:45;-4.40;1.00
9925;DHT22;5001;51.674;7.868;2023-03-01T04:28:13;-4.30;1.00
9925;DHT22;5001;51.674;7.868;2023-03-01T04:30:40;-4.20;1.00
9925;DHT22;5001;51.674;7.868;2023-03-01T04:33:09;-4.20;1.00
9925;DHT22;5001;51.674;7.868;2023-03-01T04:35:37;-4.10;1.00
9925;DHT22;5001;51.674;7.868;2023-03-01T04:38:05;-4.00;1.00
9925;DHT22;5001;51.674;7.868;2023-03-01T04:40:32;-4.10;1.00
9925;DHT22;5001;51.674;7.868;2023-03-01T04:42:59;-4.20;1.00
9925;DHT22;5001;51.674;7.868;2023-03-01T04:45:26;-4.30;1.00
9925;DHT22;5001;51.674;7.868;2023-03-01T04:47:54;-4.40;1.00
9925;DHT22;5001;51.674;7.868;2023-03-01T04:50:21;-4.30;1.00
9925;DHT22;5001;51.674;7.868;2023-03-01T04:52:50;-4.40;1.00
9925;DHT22;5001;51.674;7.868;2023-03-01T04:55:17;-4.50;1.00
9925;DHT22;5001;51.674;7.868;2023-03-01T04:57:44;-4.50;1.00
9925;DHT22;5001;51.674;7.868;2023-03-01T05:00:13;-4.60;1.00
9925;DHT22;5001;51.674;7.868;2023-03-01T05:07:58;-4.70;1.00
9925;DHT22;5001;51.674;7.868;2023-03-01T05:10:27;-4.70;1.00
9925;DHT22;5001;51.674;7.868;2023-03-01T05:12:57;-4.70;1.00
9925;DHT22;5001;51.674;7.868;2023-03-01T05:15:25;-4.60;1.00
9925;DHT22;5001;51.674;7.868;2023-03-01T05:17:54;-4.50;1.00
9925;DHT22;5001;51.674;7.868;2023-03-01T05:20:21;-4.40;1.00
9925;DHT22;5001;51.674;7.868;2023-03-01T05:22:58;-4.60;1.00
9925;DHT22;5001;51.674;7.868;2023-03-01T05:25:26;-4.60;1.00
9925;DHT22;5001;51.674;7.868;2023-03-01T05:27:53;-4.70;1.00
9925;DHT22;5001;51.674;7.868;2023-03-01T05:30:20;-4.70;1.00
9925;DHT22;5001;51.674;7.868;2023-03-01T05:32:50;-4.80;1.00
9925;DHT22;5001;51.674;7.868;2023-03-01T05:35:22;-4.80;1.00
9925;DHT22;5001;51.674;7.868;2023-03-01T05:37:50;-4.90;1.00
9925;DHT22;5001;51.674;7.868;2023-03-01T05:40:23;-4.90;1.00
9925;DHT22;5001;51.674;7.868;2023-03-01T05:42:53;-4.60;51.00
9925;DHT22;5001;51.674;7.868;2023-03-01T05:45:22;-4.60;30.20
9925;DHT22;5001;51.674;7.868;2023-03-01T05:47:50;-4.70;19.30
9925;DHT22;5001;51.674;7.868;2023-03-01T05:50:20;-4.80;30.70
9925;DHT22;5001;51.674;7.868;2023-03-01T05:53:00;-4.90;38.70
9925;DHT22;5001;51.674;7.868;2023-03-01T05:55:28;-4.90;38.40
9925;DHT22;5001;51.674;7.868;2023-03-01T05:57:58;-5.00;46.50
9925;DHT22;5001;51.674;7.868;2023-03-01T06:00:25;-5.00;50.80
9925;DHT22;5001;51.674;7.868;2023-03-01T06:02:54;-5.00;73.50
9925;DHT22;5001;51.674;7.868;2023-03-01T06:05:21;-4.90;62.10
9925;DHT22;5001;51.674;7.868;2023-03-01T06:07:49;-4.90;64.30
9925;DHT22;5001;51.674;7.868;2023-03-01T06:10:18;-4.90;59.30
9925;DHT22;5001;51.674;7.868;2023-03-01T06:12:46;-4.70;99.90
9925;DHT22;5001;51.674;7.868;2023-03-01T06:15:15;-4.70;66.00
9925;DHT22;5001;51.674;7.868;2023-03-01T06:17:44;-4.80;49.50
9925;DHT22;5001;51.674;7.868;2023-03-01T06:20:18;-4.70;71.80
9925;DHT22;5001;51.674;7.868;2023-03-01T06:22:46;-4.70;59.10
9925;DHT22;5001;51.674;7.868;2023-03-01T06:25:16;-4.60;50.30
9925;DHT22;5001;51.674;7.868;2023-03-01T06:27:44;-4.50;55.50
9925;DHT22;5001;51.674;7.868;2023-03-01T06:30:13;-4.00;41.00
9925;DHT22;5001;51.674;7.868;2023-03-01T06:32:41;-3.50;1.00
9925;DHT22;5001;51.674;7.868;2023-03-01T06:35:13;-3.20;1.00
9925;DHT22;5001;51.674;7.868;2023-03-01T06:37:41;-2.20;1.00
9925;DHT22;5001;51.674;7.868;2023-03-01T06:40:09;-0.90;1.00
9925;DHT22;5001;51.674;7.868;2023-03-01T06:42:40;-0.20;1.00
9925;DHT22;5001;51.674;7.868;2023-03-01T06:45:08;-0.40;1.00
9925;DHT22;5001;51.674;7.868;2023-03-01T06:47:36;-0.60;1.00
9925;DHT22;5001;51.674;7.868;2023-03-01T06:50:03;0.60;1.00
9925;DHT22;5001;51.674;7.868;2023-03-01T06:52:30;2.30;1.00
9925;DHT22;5001;51.674;7.868;2023-03-01T06:54:57;3.50;1.00
9925;DHT22;5001;51.674;7.868;2023-03-01T06:57:24;4.00;1.00
9925;DHT22;5001;51.674;7.868;2023-03-01T06:59:51;4.80;1.00
9925;DHT22;5001;51.674;7.868;2023-03-01T07:02:18;5.70;1.00
9925;DHT22;5001;51.674;7.868;2023-03-01T07:04:45;5.30;1.00
9925;DHT22;5001;51.674;7.868;2023-03-01T07:07:13;4.30;1.00
9925;DHT22;5001;51.674;7.868;2023-03-01T07:09:39;3.00;1.00
9925;DHT22;5001;51.674;7.868;2023-03-01T07:12:07;1.90;1.00
9925;DHT22;5001;51.674;7.868;2023-03-01T07:14:34;0.90;1.00
9925;DHT22;5001;51.674;7.868;2023-03-01T07:17:01;0.50;1.00
9925;DHT22;5001;51.674;7.868;2023-03-01T07:19:28;0.20;1.00
9925;DHT22;5001;51.674;7.868;2023-03-01T07:21:55;0.10;1.00
9925;DHT22;5001;51.674;7.868;2023-03-01T07:24:23;-0.10;1.00
9925;DHT22;5001;51.674;7.868;2023-03-01T07:26:51;-0.30;1.00
9925;DHT22;5001;51.674;7.868;2023-03-01T07:29:18;-0.40;1.00
9925;DHT22;5001;51.674;7.868;2023-03-01T07:31:45;-0.50;1.00
9925;DHT22;5001;51.674;7.868;2023-03-01T07:34:12;-0.50;1.00
9925;DHT22;5001;51.674;7.868;2023-03-01T07:36:39;-0.50;1.00
9925;DHT22;5001;51.674;7.868;2023-03-01T07:39:10;-0.50;1.00
9925;DHT22;5001;51.674;7.868;2023-03-01T07:41:37;-0.80;1.00
9925;DHT22;5001;51.674;7.868;2023-03-01T07:44:04;-0.80;1.00
9925;DHT22;5001;51.674;7.868;2023-03-01T07:46:32;-0.70;1.00
9925;DHT22;5001;51.674;7.868;2023-03-01T07:48:59;-0.60;1.00
9925;DHT22;5001;51.674;7.868;2023-03-01T07:51:26;-0.60;1.00
9925;DHT22;5001;51.674;7.868;2023-03-01T07:53:53;-0.50;1.00
9925;DHT22;5001;51.674;7.868;2023-03-01T07:56:20;-0.40;1.00
9925;DHT22;5001;51.674;7.868;2023-03-01T07:58:48;-0.40;1.00
9925;DHT22;5001;51.674;7.868;2023-03-01T08:01:19;-0.20;1.00
9925;DHT22;5001;51.674;7.868;2023-03-01T08:03:46;-0.20;1.00
9925;DHT22;5001;51.674;7.868;2023-03-01T08:06:15;-0.10;1.00
9925;DHT22;5001;51.674;7.868;2023-03-01T08:08:43;0.10;1.00
9925;DHT22;5001;51.674;7.868;2023-03-01T08:11:14;0.30;1.00
9925;DHT22;5001;51.674;7.868;2023-03-01T08:13:42;0.40;1.00
9925;DHT22;5001;51.674;7.868;2023-03-01T08:16:14;0.50;1.00
9925;DHT22;5001;51.674;7.868;2023-03-01T08:18:42;0.50;1.00
9925;DHT22;5001;51.674;7.868;2023-03-01T08:21:15;0.60;1.00
9925;DHT22;5001;51.674;7.868;2023-03-01T08:23:43;0.70;1.00
9925;DHT22;5001;51.674;7.868;2023-03-01T08:26:13;0.70;1.00
9925;DHT22;5001;51.674;7.868;2023-03-01T08:28:41;0.80;1.00
9925;DHT22;5001;51.674;7.868;2023-03-01T08:31:21;0.80;1.00
9925;DHT22;5001;51.674;7.868;2023-03-01T08:33:51;1.00;1.00
9925;DHT22;5001;51.674;7.868;2023-03-01T08:36:30;1.20;1.00
9925;DHT22;5001;51.674;7.868;2023-03-01T08:38:58;1.10;1.00
9925;DHT22;5001;51.674;7.868;2023-03-01T08:41:26;1.10;1.00
9925;DHT22;5001;51.674;7.868;2023-03-01T08:43:53;1.20;1.00
9925;DHT22;5001;51.674;7.868;2023-03-01T08:48:53;1.20;1.00
9925;DHT22;5001;51.674;7.868;2023-03-01T08:51:21;1.30;1.00
9925;DHT22;5001;51.674;7.868;2023-03-01T08:53:48;1.40;1.00
9925;DHT22;5001;51.674;7.868;2023-03-01T08:56:16;1.40;1.00
9925;DHT22;5001;51.674;7.868;2023-03-01T08:58:45;1.50;1.00
9925;DHT22;5001;51.674;7.868;2023-03-01T09:01:14;1.50;1.00
9925;DHT22;5001;51.674;7.868;2023-03-01T09:03:42;1.60;1.00
9925;DHT22;5001;51.674;7.868;2023-03-01T09:06:10;1.80;1.00
9925;DHT22;5001;51.674;7.868;2023-03-01T09:08:39;1.80;1.00
9925;DHT22;5001;51.674;7.868;2023-03-01T09:11:08;2.10;1.00
9925;DHT22;5001;51.674;7.868;2023-03-01T09:13:36;4.50;1.00
9925;DHT22;5001;51.674;7.868;2023-03-01T09:16:06;10.90;1.00
9925;DHT22;5001;51.674;7.868;2023-03-01T09:18:34;13.40;1.00
9925;DHT22;5001;51.674;7.868;2023-03-01T09:21:13;16.20;1.00
9925;DHT22;5001;51.674;7.868;2023-03-01T09:23:45;17.40;1.00
9925;DHT22;5001;51.674;7.868;2023-03-01T09:26:18;17.30;1.00
9925;DHT22;5001;51.674;7.868;2023-03-01T09:28:51;17.40;1.00
9925;DHT22;5001;51.674;7.868;2023-03-01T09:31:20;16.80;1.00
9925;DHT22;5001;51.674;7.868;2023-03-01T09:33:50;16.10;1.00
9925;DHT22;5001;51.674;7.868;2023-03-01T09:36:21;17.60;1.00
9925;DHT22;5001;51.674;7.868;2023-03-01T09:38:49;18.60;1.00
9925;DHT22;5001;51.674;7.868;2023-03-01T09:44:07;15.60;1.00
9925;DHT22;5001;51.674;7.868;2023-03-01T09:46:42;16.20;1.00
9925;DHT22;5001;51.674;7.868;2023-03-01T09:49:17;15.60;1.00
9925;DHT22;5001;51.674;7.868;2023-03-01T09:52:12;16.00;1.00
9925;DHT22;5001;51.674;7.868;2023-03-01T09:54:47;15.00;1.00
9925;DHT22;5001;51.674;7.868;2023-03-01T09:57:28;17.70;1.00
9925;DHT22;5001;51.674;7.868;2023-03-01T10:03:08;16.80;1.00
9925;DHT22;5001;51.674;7.868;2023-03-01T10:05:50;17.10;1.00
9925;DHT22;5001;51.674;7.868;2023-03-01T10:08:29;16.10;1.00
9925;DHT22;5001;51.674;7.868;2023-03-01T10:10:58;15.10;1.00
9925;DHT22;5001;51.674;7.868;2023-03-01T10:14:01;15.10;1.00
9925;DHT22;5001;51.674;7.868;2023-03-01T10:17:20;14.90;1.00
9925;DHT22;5001;51.674;7.868;2023-03-01T10:19:48;16.20;1.00
9925;DHT22;5001;51.674;7.868;2023-03-01T10:24:45;17.30;1.00
9925;DHT22;5001;51.674;7.868;2023-03-01T10:30:13;17.20;1.00
9925;DHT22;5001;51.674;7.868;2023-03-01T10:32:44;16.30;1.00
9925;DHT22;5001;51.674;7.868;2023-03-01T10:35:22;14.60;1.00
9925;DHT22;5001;51.674;7.868;2023-03-01T10:38:10;15.90;1.00
9925;DHT22;5001;51.674;7.868;2023-03-01T10:43:21;15.90;1.00
9925;DHT22;5001;51.674;7.868;2023-03-01T10:45:49;14.80;1.00
9925;DHT22;5001;51.674;7.868;2023-03-01T10:50:48;17.10;1.00
9925;DHT22;5001;51.674;7.868;2023-03-01T10:56:06;17.80;1.00
9925;DHT22;5001;51.674;7.868;2023-03-01T10:58:35;18.90;1.00
9925;DHT22;5001;51.674;7.868;2023-03-01T11:01:24;18.40;1.00
9925;DHT22;5001;51.674;7.868;2023-03-01T11:04:09;19.00;1.00
9925;DHT22;5001;51.674;7.868;2023-03-01T11:06:38;18.10;1.00
9925;DHT22;5001;51.674;7.868;2023-03-01T11:09:20;18.00;1.00
9925;DHT22;5001;51.674;7.868;2023-03-01T11:11:54;17.00;1.00
9925;DHT22;5001;51.674;7.868;2023-03-01T11:14:23;16.00;1.00
9925;DHT22;5001;51.674;7.868;2023-03-01T11:17:00;15.70;1.00
9925;DHT22;5001;51.674;7.868;2023-03-01T11:19:28;15.90;1.00
9925;DHT22;5001;51.674;7.868;2023-03-01T11:22:05;16.00;1.00
9925;DHT22;5001;51.674;7.868;2023-03-01T11:24:46;14.20;1.00
9925;DHT22;5001;51.674;7.868;2023-03-01T11:27:32;14.00;1.00
9925;DHT22;5001;51.674;7.868;2023-03-01T11:33:16;14.60;1.00
9925;DHT22;5001;51.674;7.868;2023-03-01T11:35:57;13.40;1.00
9925;DHT22;5001;51.674;7.868;2023-03-01T11:38:29;13.20;1.00
9925;DHT22;5001;51.674;7.868;2023-03-01T11:41:16;13.50;1.00
9925;DHT22;5001;51.674;7.868;2023-03-01T11:44:02;13.80;1.00
9925;DHT22;5001;51.674;7.868;2023-03-01T12:08:42;11.70;1.00
9925;DHT22;5001;51.674;7.868;2023-03-01T12:11:23;11.80;1.00
9925;DHT22;5001;51.674;7.868;2023-03-01T12:17:13;11.30;1.00
9925;DHT22;5001;51.674;7.868;2023-03-01T12:22:32;12.10;1.00
9925;DHT22;5001;51.674;7.868;2023-03-01T12:34:07;11.50;1.00
9925;DHT22;5001;51.674;7.868;2023-03-01T12:36:35;10.70;1.00
9925;DHT22;5001;51.674;7.868;2023-03-01T12:42:16;10.70;1.00
9925;DHT22;5001;51.674;7.868;2023-03-01T12:51:05;10.40;1.00
9925;DHT22;5001;51.674;7.868;2023-03-01T12:53:40;9.70;1.00
9925;DHT22;5001;51.674;7.868;2023-03-01T12:56:13;9.60;1.00
9925;DHT22;5001;51.674;7.868;2023-03-01T12:58:52;9.90;1.00
9925;DHT22;5001;51.674;7.868;2023-03-01T13:01:40;10.30;1.00
9925;DHT22;5001;51.674;7.868;2023-03-01T13:10:02;9.00;1.00
9925;DHT22;5001;51.674;7.868;2023-03-01T13:20:54;8.20;1.00
9925;DHT22;5001;51.674;7.868;2023-03-01T13:26:08;7.80;1.00
9925;DHT22;5001;51.674;7.868;2023-03-01T13:39:26;7.70;1.00
9925;DHT22;5001;51.674;7.868;2023-03-01T13:41:55;7.60;1.00
9925;DHT22;5001;51.674;7.868;2023-03-01T13:46:57;7.90;1.00
9925;DHT22;5001;51.674;7.868;2023-03-01T13:49:29;7.70;1.00
9925;DHT22;5001;51.674;7.868;2023-03-01T13:54:53;7.60;1.00
9925;DHT22;5001;51.674;7.868;2023-03-01T13:57:34;7.50;1.00
9925;DHT22;5001;51.674;7.868;2023-03-01T14:00:03;7.30;1.00
9925;DHT22;5001;51.674;7.868;2023-03-01T14:02:32;7.20;1.00
9925;DHT22;5001;51.674;7.868;2023-03-01T14:05:01;7.20;1.00
9925;DHT22;5001;51.674;7.868;2023-03-01T14:07:28;7.20;1.00
9925;DHT22;5001;51.674;7.868;2023-03-01T14:10:00;7.20;1.00
9925;DHT22;5001;51.674;7.868;2023-03-01T14:12:53;7.10;1.00
9925;DHT22;5001;51.674;7.868;2023-03-01T14:18:33;7.10;1.00
9925;DHT22;5001;51.674;7.868;2023-03-01T14:21:08;7.10;1.00
9925;DHT22;5001;51.674;7.868;2023-03-01T14:23:38;7.00;1.00
9925;DHT22;5001;51.674;7.868;2023-03-01T14:26:08;7.00;1.00
9925;DHT22;5001;51.674;7.868;2023-03-01T14:28:36;7.00;1.00
9925;DHT22;5001;51.674;7.868;2023-03-01T14:31:31;7.00;1.00
9925;DHT22;5001;51.674;7.868;2023-03-01T14:34:20;7.00;1.00
9925;DHT22;5001;51.674;7.868;2023-03-01T14:36:47;7.10;1.00
9925;DHT22;5001;51.674;7.868;2023-03-01T14:39:19;7.10;1.00
9925;DHT22;5001;51.674;7.868;2023-03-01T14:41:47;7.00;1.00
9925;DHT22;5001;51.674;7.868;2023-03-01T14:44:21;6.90;1.00
9925;DHT22;5001;51.674;7.868;2023-03-01T14:46:52;7.00;1.00
9925;DHT22;5001;51.674;7.868;2023-03-01T14:49:26;7.10;1.00
9925;DHT22;5001;51.674;7.868;2023-03-01T14:52:03;7.10;1.00
9925;DHT22;5001;51.674;7.868;2023-03-01T14:54:42;7.00;1.00
9925;DHT22;5001;51.674;7.868;2023-03-01T14:57:20;6.90;1.00
9925;DHT22;5001;51.674;7.868;2023-03-01T14:59:59;6.90;1.00
9925;DHT22;5001;51.674;7.868;2023-03-01T15:02:30;6.90;1.00
9925;DHT22;5001;51.674;7.868;2023-03-01T15:05:00;6.90;1.00
9925;DHT22;5001;51.674;7.868;2023-03-01T15:07:31;6.90;1.00
9925;DHT22;5001;51.674;7.868;2023-03-01T15:09:59;6.90;1.00
9925;DHT22;5001;51.674;7.868;2023-03-01T15:14:55;6.90;1.00
9925;DHT22;5001;51.674;7.868;2023-03-01T15:17:35;7.00;1.00
9925;DHT22;5001;51.674;7.868;2023-03-01T15:20:05;6.90;1.00
9925;DHT22;5001;51.674;7.868;2023-03-01T15:22:33;6.90;1.00
9925;DHT22;5001;51.674;7.868;2023-03-01T15:25:01;6.90;1.00
9925;DHT22;5001;51.674;7.868;2023-03-01T15:27:28;6.90;1.00
9925;DHT22;5001;51.674;7.868;2023-03-01T15:29:58;6.90;1.00
9925;DHT22;5001;51.674;7.868;2023-03-01T15:32:30;6.80;1.00
9925;DHT22;5001;51.674;7.868;2023-03-01T15:34:58;6.90;1.00
9925;DHT22;5001;51.674;7.868;2023-03-01T15:37:39;6.90;1.00
9925;DHT22;5001;51.674;7.868;2023-03-01T15:40:24;6.80;1.00
9925;DHT22;5001;51.674;7.868;2023-03-01T15:42:59;6.80;1.00
9925;DHT22;5001;51.674;7.868;2023-03-01T15:45:28;6.80;1.00
9925;DHT22;5001;51.674;7.868;2023-03-01T15:47:57;6.80;1.00
9925;DHT22;5001;51.674;7.868;2023-03-01T15:50:27;6.80;1.00
9925;DHT22;5001;51.674;7.868;2023-03-01T15:52:55;6.70;1.00
9925;DHT22;5001;51.674;7.868;2023-03-01T15:55:28;6.70;1.00
9925;DHT22;5001;51.674;7.868;2023-03-01T15:58:11;6.70;1.00
9925;DHT22;5001;51.674;7.868;2023-03-01T16:00:39;6.70;1.00
9925;DHT22;5001;51.674;7.868;2023-03-01T16:03:23;6.70;1.00
9925;DHT22;5001;51.674;7.868;2023-03-01T16:05:51;6.60;1.00
9925;DHT22;5001;51.674;7.868;2023-03-01T16:08:18;6.50;1.00
9925;DHT22;5001;51.674;7.868;2023-03-01T16:10:46;6.40;1.00
9925;DHT22;5001;51.674;7.868;2023-03-01T16:13:13;6.50;1.00
9925;DHT22;5001;51.674;7.868;2023-03-01T16:15:40;6.40;1.00
9925;DHT22;5001;51.674;7.868;2023-03-01T16:18:07;6.40;1.00
9925;DHT22;5001;51.674;7.868;2023-03-01T16:20:37;6.30;1.00
9925;DHT22;5001;51.674;7.868;2023-03-01T16:23:06;6.30;1.00
9925;DHT22;5001;51.674;7.868;2023-03-01T16:25:34;6.20;1.00
9925;DHT22;5001;51.674;7.868;2023-03-01T16:28:01;6.10;1.00
9925;DHT22;5001;51.674;7.868;2023-03-01T16:30:31;6.10;1.00
9925;DHT22;5001;51.674;7.868;2023-03-01T16:33:03;6.00;1.00
9925;DHT22;5001;51.674;7.868;2023-03-01T16:35:50;5.90;1.00
9925;DHT22;5001;51.674;7.868;2023-03-01T16:38:17;5.90;1.00
9925;DHT22;5001;51.674;7.868;2023-03-01T16:40:49;5.80;1.00
9925;DHT22;5001;51.674;7.868;2023-03-01T16:43:17;5.70;1.00
9925;DHT22;5001;51.674;7.868;2023-03-01T16:45:44;5.60;1.00
9925;DHT22;5001;51.674;7.868;2023-03-01T16:48:12;5.60;1.00
9925;DHT22;5001;51.674;7.868;2023-03-01T16:50:39;5.60;1.00
9925;DHT22;5001;51.674;7.868;2023-03-01T16:53:06;5.50;1.00
9925;DHT22;5001;51.674;7.868;2023-03-01T16:55:33;5.40;1.00
9925;DHT22;5001;51.674;7.868;2023-03-01T16:58:01;5.30;1.00
9925;DHT22;5001;51.674;7.868;2023-03-01T17:00:28;5.30;1.00
9925;DHT22;5001;51.674;7.868;2023-03-01T17:02:55;5.20;1.00
9925;DHT22;5001;51.674;7.868;2023-03-01T17:05:22;5.20;1.00
9925;DHT22;5001;51.674;7.868;2023-03-01T17:07:51;5.10;1.00
9925;DHT22;5001;51.674;7.868;2023-03-01T17:10:18;5.00;1.00
9925;DHT22;5001;51.674;7.868;2023-03-01T17:12:48;4.90;1.00
9925;DHT22;5001;51.674;7.868;2023-03-01T17:15:16;4.80;1.00
9925;DHT22;5001;51.674;7.868;2023-03-01T17:17:43;4.80;1.00
9925;DHT22;5001;51.674;7.868;2023-03-01T17:20:10;4.70;1.00
9925;DHT22;5001;51.674;7.868;2023-03-01T17:22:37;4.60;1.00
9925;DHT22;5001;51.674;7.868;2023-03-01T17:25:07;4.50;1.00
9925;DHT22;5001;51.674;7.868;2023-03-01T17:27:36;4.50;1.00
9925;DHT22;5001;51.674;7.868;2023-03-01T17:30:06;4.40;1.00
9925;DHT22;5001;51.674;7.868;2023-03-01T17:32:34;4.50;1.00
9925;DHT22;5001;51.674;7.868;2023-03-01T17:35:01;4.50;1.00
9925;DHT22;5001;51.674;7.868;2023-03-01T17:37:28;4.40;1.00
9925;DHT22;5001;51.674;7.868;2023-03-01T17:39:55;4.40;1.00
9925;DHT22;5001;51.674;7.868;2023-03-01T17:42:22;4.40;1.00
9925;DHT22;5001;51.674;7.868;2023-03-01T17:44:49;4.30;1.00
9925;DHT22;5001;51.674;7.868;2023-03-01T17:47:16;4.30;1.00
9925;DHT22;5001;51.674;7.868;2023-03-01T17:49:43;4.20;1.00
9925;DHT22;5001;51.674;7.868;2023-03-01T17:52:10;4.20;1.00
9925;DHT22;5001;51.674;7.868;2023-03-01T17:54:37;4.10;1.00
9925;DHT22;5001;51.674;7.868;2023-03-01T17:57:04;4.10;1.00
9925;DHT22;5001;51.674;7.868;2023-03-01T17:59:31;4.10;1.00
9925;DHT22;5001;51.674;7.868;2023-03-01T18:01:59;4.00;1.00
9925;DHT22;5001;51.674;7.868;2023-03-01T18:04:28;4.00;1.00
9925;DHT22;5001;51.674;7.868;2023-03-01T18:06:55;3.90;1.00
9925;DHT22;5001;51.674;7.868;2023-03-01T18:09:22;3.90;1.00
9925;DHT22;5001;51.674;7.868;2023-03-01T18:11:49;3.80;1.00
9925;DHT22;5001;51.674;7.868;2023-03-01T18:14:16;3.80;1.00
9925;DHT22;5001;51.674;7.868;2023-03-01T18:16:43;3.80;1.00
9925;DHT22;5001;51.674;7.868;2023-03-01T18:19:11;3.70;1.00
9925;DHT22;5001;51.674;7.868;2023-03-01T18:21:38;3.70;1.00
9925;DHT22;5001;51.674;7.868;2023-03-01T18:24:05;3.70;1.00
9925;DHT22;5001;51.674;7.868;2023-03-01T18:26:32;3.70;1.00
9925;DHT22;5001;51.674;7.868;2023-03-01T18:29:00;3.70;1.00
9925;DHT22;5001;51.674;7.868;2023-03-01T18:31:29;3.70;1.00
9925;DHT22;5001;51.674;7.868;2023-03-01T18:33:59;3.70;1.00
9925;DHT22;5001;51.674;7.868;2023-03-01T18:36:32;3.70;1.00
9925;DHT22;5001;51.674;7.868;2023-03-01T18:39:04;3.60;1.00
9925;DHT22;5001;51.674;7.868;2023-03-01T18:41:32;3.50;1.00
9925;DHT22;5001;51.674;7.868;2023-03-01T18:44:01;3.40;1.00
9925;DHT22;5001;51.674;7.868;2023-03-01T18:46:28;3.40;1.00
9925;DHT22;5001;51.674;7.868;2023-03-01T18:48:55;3.30;1.00
9925;DHT22;5001;51.674;7.868;2023-03-01T18:51:24;3.20;1.00
9925;DHT22;5001;51.674;7.868;2023-03-01T18:53:52;3.20;1.00